Impacts TAF Board INFO
FOR SITUATIONAL AWARENESS. NOT TO BE USED FOR FLIGHT PLANNING PURPOSES.
IDs:

KMDW - Chicago/Midway Intl, IL, US

Issued at 2334 UTC 23 Jan 2018
Updated at 0157 UTC 24 Jan 2018
Potential Impact None Slight Moderate High
Time<<24/14Z 24/15Z 24/16Z 24/17Z 24/18Z 24/19Z 24/20Z 24/21Z 24/22Z 24/23Z 25/00Z 25/01Z 25/02Z>>
Type PRVL PRVL PRVL PRVL PRVL PRVL PRVL PRVL PRVL PRVL PRVL PRVL PRVL
VIS >6 >6 >6 >6 >6 >6 >6 >6 >6 >6 >6 >6 >6
CIG 25 25 25 25 80 80 80 80 80 80 80 80 80
Cover BKN BKN BKN BKN BKN BKN BKN BKN BKN BKN BKN BKN BKN
FltCat MVFR MVFR MVFR MVFR VFR VFR VFR VFR VFR VFR VFR VFR VFR
WX -- -- -- -- -- -- -- -- -- -- -- -- --
WDir 310 310 310 310 290 290 290 290 290 290 290 290 290
WSpd 5 5 5 5 7 7 7 7 7 7 7 7 7
WGst -- -- -- -- -- -- -- -- -- -- -- -- --

Raw TAF
KMDW 232334Z 2400/2506 32011KT P6SM OVC015
  FM240300 31005KT P6SM OVC015
  FM241200 31005KT P6SM BKN025
  FM241800 29007KT P6SM SCT025 BKN080


METAR Board
Radar Display
Forecast Discussion

FOR SITUATIONAL AWARENESS. NOT TO BE USED FOR FLIGHT PLANNING PURPOSES.